sensor_id;sensor_type;location;lat;lon;timestamp;temperature;humidity
28835;DHT22;15969;51.536;11.884;2023-02-04T00:01:57;6.10;99.90
28835;DHT22;15969;51.536;11.884;2023-02-04T00:04:23;5.90;99.90
28835;DHT22;15969;51.536;11.884;2023-02-04T00:06:48;5.80;99.90
28835;DHT22;15969;51.536;11.884;2023-02-04T00:09:14;5.80;99.90
28835;DHT22;15969;51.536;11.884;2023-02-04T00:11:40;5.80;99.90
28835;DHT22;15969;51.536;11.884;2023-02-04T00:14:06;5.70;99.90
28835;DHT22;15969;51.536;11.884;2023-02-04T00:16:32;5.70;99.90
28835;DHT22;15969;51.536;11.884;2023-02-04T00:18:58;5.70;99.90
28835;DHT22;15969;51.536;11.884;2023-02-04T00:21:23;5.70;99.90
28835;DHT22;15969;51.536;11.884;2023-02-04T00:23:49;5.60;99.90
28835;DHT22;15969;51.536;11.884;2023-02-04T00:26:15;5.70;99.90
28835;DHT22;15969;51.536;11.884;2023-02-04T00:28:41;5.60;99.90
28835;DHT22;15969;51.536;11.884;2023-02-04T00:31:07;5.60;99.90
28835;DHT22;15969;51.536;11.884;2023-02-04T00:33:32;5.50;99.90
28835;DHT22;15969;51.536;11.884;2023-02-04T00:35:58;5.40;99.90
28835;DHT22;15969;51.536;11.884;2023-02-04T00:38:24;5.40;99.90
28835;DHT22;15969;51.536;11.884;2023-02-04T00:40:49;5.40;99.90
28835;DHT22;15969;51.536;11.884;2023-02-04T00:43:15;5.30;99.90
28835;DHT22;15969;51.536;11.884;2023-02-04T00:45:40;5.40;99.90
28835;DHT22;15969;51.536;11.884;2023-02-04T00:48:06;5.30;99.90
28835;DHT22;15969;51.536;11.884;2023-02-04T00:50:32;5.40;99.90
28835;DHT22;15969;51.536;11.884;2023-02-04T00:53:00;5.40;99.90
28835;DHT22;15969;51.536;11.884;2023-02-04T00:55:26;5.30;99.90
28835;DHT22;15969;51.536;11.884;2023-02-04T00:57:52;5.30;99.90
28835;DHT22;15969;51.536;11.884;2023-02-04T01:00:18;5.20;99.90
28835;DHT22;15969;51.536;11.884;2023-02-04T01:02:43;5.20;99.90
28835;DHT22;15969;51.536;11.884;2023-02-04T01:05:09;5.20;99.90
28835;DHT22;15969;51.536;11.884;2023-02-04T01:07:35;5.20;99.90
28835;DHT22;15969;51.536;11.884;2023-02-04T01:10:01;5.20;99.90
28835;DHT22;15969;51.536;11.884;2023-02-04T01:12:26;5.20;99.90
28835;DHT22;15969;51.536;11.884;2023-02-04T01:14:53;5.10;99.90
28835;DHT22;15969;51.536;11.884;2023-02-04T01:17:20;5.10;99.90
28835;DHT22;15969;51.536;11.884;2023-02-04T01:19:46;5.00;99.90
28835;DHT22;15969;51.536;11.884;2023-02-04T01:22:12;5.00;99.90
28835;DHT22;15969;51.536;11.884;2023-02-04T01:24:37;4.90;99.90
28835;DHT22;15969;51.536;11.884;2023-02-04T01:27:03;4.80;99.90
28835;DHT22;15969;51.536;11.884;2023-02-04T01:29:29;4.80;99.90
28835;DHT22;15969;51.536;11.884;2023-02-04T01:31:55;4.90;99.90
28835;DHT22;15969;51.536;11.884;2023-02-04T01:34:20;4.80;99.90
28835;DHT22;15969;51.536;11.884;2023-02-04T01:36:46;4.70;99.90
28835;DHT22;15969;51.536;11.884;2023-02-04T01:39:12;4.70;99.90
28835;DHT22;15969;51.536;11.884;2023-02-04T01:41:38;4.60;99.90
28835;DHT22;15969;51.536;11.884;2023-02-04T01:44:04;4.60;99.90
28835;DHT22;15969;51.536;11.884;2023-02-04T01:46:30;4.50;99.90
28835;DHT22;15969;51.536;11.884;2023-02-04T01:48:58;4.50;99.90
28835;DHT22;15969;51.536;11.884;2023-02-04T01:51:26;4.40;99.90
28835;DHT22;15969;51.536;11.884;2023-02-04T01:53:54;4.30;99.90
28835;DHT22;15969;51.536;11.884;2023-02-04T01:56:22;4.40;99.90
28835;DHT22;15969;51.536;11.884;2023-02-04T01:58:51;4.40;99.90
28835;DHT22;15969;51.536;11.884;2023-02-04T02:01:39;4.30;99.90
28835;DHT22;15969;51.536;11.884;2023-02-04T02:04:07;4.40;99.90
28835;DHT22;15969;51.536;11.884;2023-02-04T02:06:41;4.30;99.90
28835;DHT22;15969;51.536;11.884;2023-02-04T02:09:10;4.40;99.90
28835;DHT22;15969;51.536;11.884;2023-02-04T02:11:36;4.40;99.90
28835;DHT22;15969;51.536;11.884;2023-02-04T02:14:02;4.30;99.90
28835;DHT22;15969;51.536;11.884;2023-02-04T02:16:28;4.40;99.90
28835;DHT22;15969;51.536;11.884;2023-02-04T02:18:54;4.40;99.90
28835;DHT22;15969;51.536;11.884;2023-02-04T02:21:31;4.30;99.90
28835;DHT22;15969;51.536;11.884;2023-02-04T02:24:31;4.30;99.90
28835;DHT22;15969;51.536;11.884;2023-02-04T02:27:06;4.30;99.90
28835;DHT22;15969;51.536;11.884;2023-02-04T02:29:34;4.40;99.90
28835;DHT22;15969;51.536;11.884;2023-02-04T02:32:01;4.30;99.90
28835;DHT22;15969;51.536;11.884;2023-02-04T02:34:27;4.30;99.90
28835;DHT22;15969;51.536;11.884;2023-02-04T02:36:55;4.40;99.90
28835;DHT22;15969;51.536;11.884;2023-02-04T02:39:21;4.40;99.90
28835;DHT22;15969;51.536;11.884;2023-02-04T02:41:47;4.30;99.90
28835;DHT22;15969;51.536;11.884;2023-02-04T02:44:13;4.40;99.90
28835;DHT22;15969;51.536;11.884;2023-02-04T02:46:39;4.30;99.90
28835;DHT22;15969;51.536;11.884;2023-02-04T02:49:05;4.30;99.90
28835;DHT22;15969;51.536;11.884;2023-02-04T02:51:31;4.40;99.90
28835;DHT22;15969;51.536;11.884;2023-02-04T02:53:57;4.50;99.90
28835;DHT22;15969;51.536;11.884;2023-02-04T02:56:23;4.50;99.90
28835;DHT22;15969;51.536;11.884;2023-02-04T02:59:16;4.60;99.90
28835;DHT22;15969;51.536;11.884;2023-02-04T03:01:43;4.60;99.90
28835;DHT22;15969;51.536;11.884;2023-02-04T03:04:10;4.50;99.90
28835;DHT22;15969;51.536;11.884;2023-02-04T03:06:37;4.50;99.90
28835;DHT22;15969;51.536;11.884;2023-02-04T03:09:03;4.50;99.90
28835;DHT22;15969;51.536;11.884;2023-02-04T03:11:28;4.60;99.90
28835;DHT22;15969;51.536;11.884;2023-02-04T03:13:55;4.50;99.90
28835;DHT22;15969;51.536;11.884;2023-02-04T03:16:21;4.60;99.90
28835;DHT22;15969;51.536;11.884;2023-02-04T03:18:47;4.60;99.90
28835;DHT22;15969;51.536;11.884;2023-02-04T03:21:13;4.60;99.90
28835;DHT22;15969;51.536;11.884;2023-02-04T03:23:39;4.50;99.90
28835;DHT22;15969;51.536;11.884;2023-02-04T03:26:06;4.50;99.90
28835;DHT22;15969;51.536;11.884;2023-02-04T03:28:33;4.50;99.90
28835;DHT22;15969;51.536;11.884;2023-02-04T03:30:58;4.50;99.90
28835;DHT22;15969;51.536;11.884;2023-02-04T03:33:26;4.50;99.90
28835;DHT22;15969;51.536;11.884;2023-02-04T03:35:58;4.50;99.90
28835;DHT22;15969;51.536;11.884;2023-02-04T03:38:24;4.50;99.90
28835;DHT22;15969;51.536;11.884;2023-02-04T03:40:49;4.50;99.90
28835;DHT22;15969;51.536;11.884;2023-02-04T03:43:15;4.50;99.90
28835;DHT22;15969;51.536;11.884;2023-02-04T03:45:41;4.50;99.90
28835;DHT22;15969;51.536;11.884;2023-02-04T03:48:07;4.50;99.90
28835;DHT22;15969;51.536;11.884;2023-02-04T03:50:32;4.50;99.90
28835;DHT22;15969;51.536;11.884;2023-02-04T03:52:58;4.50;99.90
28835;DHT22;15969;51.536;11.884;2023-02-04T03:55:24;4.50;99.90
28835;DHT22;15969;51.536;11.884;2023-02-04T03:57:51;4.40;99.90
28835;DHT22;15969;51.536;11.884;2023-02-04T04:00:17;4.40;99.90
28835;DHT22;15969;51.536;11.884;2023-02-04T04:02:43;4.40;99.90
28835;DHT22;15969;51.536;11.884;2023-02-04T04:05:09;4.40;99.90
28835;DHT22;15969;51.536;11.884;2023-02-04T04:07:35;4.40;99.90
28835;DHT22;15969;51.536;11.884;2023-02-04T04:10:00;4.40;99.90
28835;DHT22;15969;51.536;11.884;2023-02-04T04:12:26;4.50;99.90
28835;DHT22;15969;51.536;11.884;2023-02-04T04:14:52;4.50;99.90
28835;DHT22;15969;51.536;11.884;2023-02-04T04:17:17;4.50;99.90
28835;DHT22;15969;51.536;11.884;2023-02-04T04:19:43;4.50;99.90
28835;DHT22;15969;51.536;11.884;2023-02-04T04:22:09;4.40;99.90
28835;DHT22;15969;51.536;11.884;2023-02-04T04:24:35;4.50;99.90
28835;DHT22;15969;51.536;11.884;2023-02-04T04:27:01;4.50;99.90
28835;DHT22;15969;51.536;11.884;2023-02-04T04:29:27;4.50;99.90
28835;DHT22;15969;51.536;11.884;2023-02-04T04:31:52;4.50;99.90
28835;DHT22;15969;51.536;11.884;2023-02-04T04:34:18;4.50;99.90
28835;DHT22;15969;51.536;11.884;2023-02-04T04:36:44;4.60;99.90
28835;DHT22;15969;51.536;11.884;2023-02-04T04:39:09;4.50;99.90
28835;DHT22;15969;51.536;11.884;2023-02-04T04:41:35;4.40;99.90
28835;DHT22;15969;51.536;11.884;2023-02-04T04:44:01;4.40;99.90
28835;DHT22;15969;51.536;11.884;2023-02-04T04:46:26;4.40;99.90
28835;DHT22;15969;51.536;11.884;2023-02-04T04:48:52;4.40;99.90
28835;DHT22;15969;51.536;11.884;2023-02-04T04:51:18;4.30;99.90
28835;DHT22;15969;51.536;11.884;2023-02-04T04:53:43;4.30;99.90
28835;DHT22;15969;51.536;11.884;2023-02-04T04:56:09;4.20;99.90
28835;DHT22;15969;51.536;11.884;2023-02-04T04:58:35;4.10;99.90
28835;DHT22;15969;51.536;11.884;2023-02-04T05:01:00;4.00;99.90
28835;DHT22;15969;51.536;11.884;2023-02-04T05:03:26;3.90;99.90
28835;DHT22;15969;51.536;11.884;2023-02-04T05:05:51;3.80;99.90
28835;DHT22;15969;51.536;11.884;2023-02-04T05:08:17;3.70;99.90
28835;DHT22;15969;51.536;11.884;2023-02-04T05:10:45;3.60;99.90
28835;DHT22;15969;51.536;11.884;2023-02-04T05:13:10;3.50;99.90
28835;DHT22;15969;51.536;11.884;2023-02-04T05:15:36;3.40;99.90
28835;DHT22;15969;51.536;11.884;2023-02-04T05:18:02;3.20;99.90
28835;DHT22;15969;51.536;11.884;2023-02-04T05:20:28;3.20;99.90
28835;DHT22;15969;51.536;11.884;2023-02-04T05:22:53;3.20;99.90
28835;DHT22;15969;51.536;11.884;2023-02-04T05:25:26;3.10;99.90
28835;DHT22;15969;51.536;11.884;2023-02-04T05:27:53;3.00;99.90
28835;DHT22;15969;51.536;11.884;2023-02-04T05:30:18;3.00;99.90
28835;DHT22;15969;51.536;11.884;2023-02-04T05:32:44;3.00;99.90
28835;DHT22;15969;51.536;11.884;2023-02-04T05:35:10;3.00;99.90
28835;DHT22;15969;51.536;11.884;2023-02-04T05:37:35;3.00;99.90
28835;DHT22;15969;51.536;11.884;2023-02-04T05:40:01;3.00;99.90
28835;DHT22;15969;51.536;11.884;2023-02-04T05:42:27;3.10;99.90
28835;DHT22;15969;51.536;11.884;2023-02-04T05:44:53;3.20;99.90
28835;DHT22;15969;51.536;11.884;2023-02-04T05:47:18;3.30;99.90
28835;DHT22;15969;51.536;11.884;2023-02-04T05:49:45;3.30;99.90
28835;DHT22;15969;51.536;11.884;2023-02-04T05:52:11;3.40;99.90
28835;DHT22;15969;51.536;11.884;2023-02-04T05:54:36;3.40;99.90
28835;DHT22;15969;51.536;11.884;2023-02-04T05:57:02;3.50;99.90
28835;DHT22;15969;51.536;11.884;2023-02-04T05:59:28;3.50;99.90
28835;DHT22;15969;51.536;11.884;2023-02-04T06:01:53;3.50;99.90
28835;DHT22;15969;51.536;11.884;2023-02-04T06:04:19;3.50;99.90
28835;DHT22;15969;51.536;11.884;2023-02-04T06:06:45;3.60;99.90
28835;DHT22;15969;51.536;11.884;2023-02-04T06:09:11;3.60;99.90
28835;DHT22;15969;51.536;11.884;2023-02-04T06:11:37;3.60;99.90
28835;DHT22;15969;51.536;11.884;2023-02-04T06:14:03;3.60;99.90
28835;DHT22;15969;51.536;11.884;2023-02-04T06:16:29;3.60;99.90
28835;DHT22;15969;51.536;11.884;2023-02-04T06:18:54;3.60;99.90
28835;DHT22;15969;51.536;11.884;2023-02-04T06:21:20;3.60;99.90
28835;DHT22;15969;51.536;11.884;2023-02-04T06:23:45;3.50;99.90
28835;DHT22;15969;51.536;11.884;2023-02-04T06:26:11;3.50;99.90
28835;DHT22;15969;51.536;11.884;2023-02-04T06:28:37;3.50;99.90
28835;DHT22;15969;51.536;11.884;2023-02-04T06:31:03;3.50;99.90
28835;DHT22;15969;51.536;11.884;2023-02-04T06:33:29;3.50;99.90
28835;DHT22;15969;51.536;11.884;2023-02-04T06:35:54;3.40;99.90
28835;DHT22;15969;51.536;11.884;2023-02-04T06:38:20;3.50;99.90
28835;DHT22;15969;51.536;11.884;2023-02-04T06:40:46;3.40;99.90
28835;DHT22;15969;51.536;11.884;2023-02-04T06:43:14;3.40;99.90
28835;DHT22;15969;51.536;11.884;2023-02-04T06:45:40;3.30;99.90
28835;DHT22;15969;51.536;11.884;2023-02-04T06:48:06;3.30;99.90
28835;DHT22;15969;51.536;11.884;2023-02-04T06:50:31;3.30;99.90
28835;DHT22;15969;51.536;11.884;2023-02-04T06:52:57;3.30;99.90
28835;DHT22;15969;51.536;11.884;2023-02-04T06:55:23;3.30;99.90
28835;DHT22;15969;51.536;11.884;2023-02-04T06:57:48;3.30;99.90
28835;DHT22;15969;51.536;11.884;2023-02-04T07:00:14;3.30;99.90
28835;DHT22;15969;51.536;11.884;2023-02-04T07:02:40;3.30;99.90
28835;DHT22;15969;51.536;11.884;2023-02-04T07:05:07;3.30;99.90
28835;DHT22;15969;51.536;11.884;2023-02-04T07:07:32;3.40;99.90
28835;DHT22;15969;51.536;11.884;2023-02-04T07:09:58;3.30;99.90
28835;DHT22;15969;51.536;11.884;2023-02-04T07:12:24;3.30;99.90
28835;DHT22;15969;51.536;11.884;2023-02-04T07:14:49;3.30;99.90
28835;DHT22;15969;51.536;11.884;2023-02-04T07:17:15;3.30;99.90
28835;DHT22;15969;51.536;11.884;2023-02-04T07:19:41;3.20;99.90
28835;DHT22;15969;51.536;11.884;2023-02-04T07:22:06;3.20;99.90
28835;DHT22;15969;51.536;11.884;2023-02-04T07:24:32;3.20;99.90
28835;DHT22;15969;51.536;11.884;2023-02-04T07:26:58;3.10;99.90
28835;DHT22;15969;51.536;11.884;2023-02-04T07:29:23;3.10;99.90
28835;DHT22;15969;51.536;11.884;2023-02-04T07:31:49;3.00;99.90
28835;DHT22;15969;51.536;11.884;2023-02-04T07:34:18;3.10;99.90
28835;DHT22;15969;51.536;11.884;2023-02-04T07:36:43;3.10;99.90
28835;DHT22;15969;51.536;11.884;2023-02-04T07:39:09;3.10;99.90
28835;DHT22;15969;51.536;11.884;2023-02-04T07:41:35;3.20;99.90
28835;DHT22;15969;51.536;11.884;2023-02-04T07:44:01;3.20;99.90
28835;DHT22;15969;51.536;11.884;2023-02-04T07:46:27;3.30;99.90
28835;DHT22;15969;51.536;11.884;2023-02-04T07:48:53;3.40;99.90
28835;DHT22;15969;51.536;11.884;2023-02-04T07:51:19;3.50;99.90
28835;DHT22;15969;51.536;11.884;2023-02-04T07:53:44;3.60;99.90
28835;DHT22;15969;51.536;11.884;2023-02-04T07:56:10;3.60;99.90
28835;DHT22;15969;51.536;11.884;2023-02-04T07:58:36;3.50;99.90
28835;DHT22;15969;51.536;11.884;2023-02-04T08:01:02;3.70;99.90
28835;DHT22;15969;51.536;11.884;2023-02-04T08:03:27;3.80;99.90
28835;DHT22;15969;51.536;11.884;2023-02-04T08:05:53;3.80;99.90
28835;DHT22;15969;51.536;11.884;2023-02-04T08:08:19;3.90;99.90
28835;DHT22;15969;51.536;11.884;2023-02-04T08:10:45;3.90;99.90
28835;DHT22;15969;51.536;11.884;2023-02-04T08:13:11;3.90;99.90
28835;DHT22;15969;51.536;11.884;2023-02-04T08:15:37;4.00;99.90
28835;DHT22;15969;51.536;11.884;2023-02-04T08:18:03;4.00;99.90
28835;DHT22;15969;51.536;11.884;2023-02-04T08:20:29;4.00;99.90
28835;DHT22;15969;51.536;11.884;2023-02-04T08:22:55;4.00;99.90
28835;DHT22;15969;51.536;11.884;2023-02-04T08:25:20;3.90;99.90
28835;DHT22;15969;51.536;11.884;2023-02-04T08:27:46;3.90;99.90
28835;DHT22;15969;51.536;11.884;2023-02-04T08:30:12;3.90;99.90
28835;DHT22;15969;51.536;11.884;2023-02-04T08:32:38;3.90;99.90
28835;DHT22;15969;51.536;11.884;2023-02-04T08:35:04;3.90;99.90
28835;DHT22;15969;51.536;11.884;2023-02-04T08:37:30;4.00;99.90
28835;DHT22;15969;51.536;11.884;2023-02-04T08:39:56;4.00;99.90
28835;DHT22;15969;51.536;11.884;2023-02-04T08:42:22;3.90;99.90
28835;DHT22;15969;51.536;11.884;2023-02-04T08:44:48;3.90;99.90
28835;DHT22;15969;51.536;11.884;2023-02-04T08:47:13;3.90;99.90
28835;DHT22;15969;51.536;11.884;2023-02-04T08:49:39;4.00;99.90
28835;DHT22;15969;51.536;11.884;2023-02-04T08:52:06;4.00;99.90
28835;DHT22;15969;51.536;11.884;2023-02-04T08:54:32;3.90;99.90
28835;DHT22;15969;51.536;11.884;2023-02-04T08:56:59;4.00;99.90
28835;DHT22;15969;51.536;11.884;2023-02-04T08:59:26;3.90;99.90
28835;DHT22;15969;51.536;11.884;2023-02-04T09:01:52;3.90;99.90
28835;DHT22;15969;51.536;11.884;2023-02-04T09:04:19;3.90;99.90
28835;DHT22;15969;51.536;11.884;2023-02-04T09:06:45;3.90;99.90
28835;DHT22;15969;51.536;11.884;2023-02-04T09:09:12;3.90;99.90
28835;DHT22;15969;51.536;11.884;2023-02-04T09:11:38;4.00;99.90
28835;DHT22;15969;51.536;11.884;2023-02-04T09:14:04;4.00;99.90
28835;DHT22;15969;51.536;11.884;2023-02-04T09:16:30;4.00;99.90
28835;DHT22;15969;51.536;11.884;2023-02-04T09:18:56;4.00;99.90
28835;DHT22;15969;51.536;11.884;2023-02-04T09:21:23;4.00;99.90
28835;DHT22;15969;51.536;11.884;2023-02-04T09:23:49;4.00;99.90
28835;DHT22;15969;51.536;11.884;2023-02-04T09:26:15;4.00;99.90
28835;DHT22;15969;51.536;11.884;2023-02-04T09:28:40;4.10;99.90
28835;DHT22;15969;51.536;11.884;2023-02-04T09:31:06;4.20;99.90
28835;DHT22;15969;51.536;11.884;2023-02-04T09:33:32;4.20;99.90
28835;DHT22;15969;51.536;11.884;2023-02-04T09:35:58;4.20;99.90
28835;DHT22;15969;51.536;11.884;2023-02-04T09:38:24;4.30;99.90
28835;DHT22;15969;51.536;11.884;2023-02-04T09:40:54;4.30;99.90
28835;DHT22;15969;51.536;11.884;2023-02-04T09:43:32;4.30;99.90
28835;DHT22;15969;51.536;11.884;2023-02-04T09:45:59;4.40;99.90
28835;DHT22;15969;51.536;11.884;2023-02-04T09:48:25;4.50;99.90
28835;DHT22;15969;51.536;11.884;2023-02-04T09:51:03;4.60;99.90
28835;DHT22;15969;51.536;11.884;2023-02-04T09:53:31;4.60;99.90
28835;DHT22;15969;51.536;11.884;2023-02-04T09:55:58;4.70;99.90
28835;DHT22;15969;51.536;11.884;2023-02-04T09:58:27;4.80;99.90
28835;DHT22;15969;51.536;11.884;2023-02-04T10:01:04;4.80;99.90
28835;DHT22;15969;51.536;11.884;2023-02-04T10:03:35;4.80;99.90
28835;DHT22;15969;51.536;11.884;2023-02-04T10:06:01;4.90;99.90
28835;DHT22;15969;51.536;11.884;2023-02-04T10:08:29;5.00;99.90
28835;DHT22;15969;51.536;11.884;2023-02-04T10:10:55;5.00;99.90
28835;DHT22;15969;51.536;11.884;2023-02-04T10:13:31;5.00;99.90
28835;DHT22;15969;51.536;11.884;2023-02-04T10:15:59;5.00;99.90
28835;DHT22;15969;51.536;11.884;2023-02-04T10:18:28;5.10;99.90
28835;DHT22;15969;51.536;11.884;2023-02-04T10:21:16;5.10;99.90
28835;DHT22;15969;51.536;11.884;2023-02-04T10:23:46;5.10;99.90
28835;DHT22;15969;51.536;11.884;2023-02-04T10:26:14;5.20;99.90
28835;DHT22;15969;51.536;11.884;2023-02-04T10:28:41;5.30;99.90
28835;DHT22;15969;51.536;11.884;2023-02-04T10:31:27;5.40;99.90
28835;DHT22;15969;51.536;11.884;2023-02-04T10:34:19;5.50;99.90
28835;DHT22;15969;51.536;11.884;2023-02-04T10:36:49;5.50;99.90
28835;DHT22;15969;51.536;11.884;2023-02-04T10:39:18;5.60;99.90
28835;DHT22;15969;51.536;11.884;2023-02-04T10:41:50;5.60;99.90
28835;DHT22;15969;51.536;11.884;2023-02-04T10:44:24;5.70;99.90
28835;DHT22;15969;51.536;11.884;2023-02-04T10:47:02;5.80;99.90
28835;DHT22;15969;51.536;11.884;2023-02-04T10:49:30;5.90;99.90
28835;DHT22;15969;51.536;11.884;2023-02-04T10:51:56;6.00;99.90
28835;DHT22;15969;51.536;11.884;2023-02-04T10:54:30;6.10;99.90
28835;DHT22;15969;51.536;11.884;2023-02-04T10:57:17;6.00;99.90
28835;DHT22;15969;51.536;11.884;2023-02-04T10:59:44;6.20;99.90
28835;DHT22;15969;51.536;11.884;2023-02-04T11:02:31;6.20;99.90
28835;DHT22;15969;51.536;11.884;2023-02-04T11:05:03;6.30;99.90
28835;DHT22;15969;51.536;11.884;2023-02-04T11:07:30;6.40;99.90
28835;DHT22;15969;51.536;11.884;2023-02-04T11:09:56;6.50;99.90
28835;DHT22;15969;51.536;11.884;2023-02-04T11:12:36;6.60;99.90
28835;DHT22;15969;51.536;11.884;2023-02-04T11:15:44;6.70;99.90
28835;DHT22;15969;51.536;11.884;2023-02-04T11:18:32;6.70;99.90
28835;DHT22;15969;51.536;11.884;2023-02-04T11:26:49;6.90;99.90
28835;DHT22;15969;51.536;11.884;2023-02-04T11:29:35;7.10;99.90
28835;DHT22;15969;51.536;11.884;2023-02-04T11:32:08;7.20;99.90
28835;DHT22;15969;51.536;11.884;2023-02-04T11:34:53;7.30;99.90
28835;DHT22;15969;51.536;11.884;2023-02-04T11:37:34;7.30;99.90
28835;DHT22;15969;51.536;11.884;2023-02-04T11:40:20;7.30;99.90
28835;DHT22;15969;51.536;11.884;2023-02-04T11:42:47;7.20;99.90
28835;DHT22;15969;51.536;11.884;2023-02-04T11:45:31;7.10;99.90
28835;DHT22;15969;51.536;11.884;2023-02-04T11:48:09;7.00;99.90
28835;DHT22;15969;51.536;11.884;2023-02-04T11:50:37;7.10;99.90
28835;DHT22;15969;51.536;11.884;2023-02-04T11:53:04;7.10;99.90
28835;DHT22;15969;51.536;11.884;2023-02-04T11:55:34;7.20;99.90
28835;DHT22;15969;51.536;11.884;2023-02-04T11:58:01;7.20;99.90
28835;DHT22;15969;51.536;11.884;2023-02-04T12:00:32;7.20;99.90
28835;DHT22;15969;51.536;11.884;2023-02-04T12:03:02;7.20;99.90
28835;DHT22;15969;51.536;11.884;2023-02-04T12:05:45;7.10;99.90
28835;DHT22;15969;51.536;11.884;2023-02-04T12:11:24;7.50;99.90
28835;DHT22;15969;51.536;11.884;2023-02-04T12:13:55;7.60;99.90
28835;DHT22;15969;51.536;11.884;2023-02-04T12:16:23;7.60;99.90
28835;DHT22;15969;51.536;11.884;2023-02-04T12:18:49;7.50;99.90
28835;DHT22;15969;51.536;11.884;2023-02-04T12:21:16;7.50;99.90
28835;DHT22;15969;51.536;11.884;2023-02-04T12:23:45;7.50;99.90
28835;DHT22;15969;51.536;11.884;2023-02-04T12:26:11;7.60;99.90
28835;DHT22;15969;51.536;11.884;2023-02-04T12:28:37;7.80;99.90
28835;DHT22;15969;51.536;11.884;2023-02-04T12:31:02;7.70;99.90
28835;DHT22;15969;51.536;11.884;2023-02-04T12:33:28;7.70;99.90
28835;DHT22;15969;51.536;11.884;2023-02-04T12:35:54;7.60;99.90
28835;DHT22;15969;51.536;11.884;2023-02-04T12:38:19;7.60;99.90
28835;DHT22;15969;51.536;11.884;2023-02-04T12:40:45;7.80;99.90
28835;DHT22;15969;51.536;11.884;2023-02-04T12:43:11;7.80;99.90
28835;DHT22;15969;51.536;11.884;2023-02-04T12:45:37;8.00;99.90
28835;DHT22;15969;51.536;11.884;2023-02-04T12:48:04;8.00;99.90
28835;DHT22;15969;51.536;11.884;2023-02-04T12:50:30;8.00;99.90
28835;DHT22;15969;51.536;11.884;2023-02-04T12:52:58;8.00;99.90
28835;DHT22;15969;51.536;11.884;2023-02-04T12:55:26;8.00;99.90
28835;DHT22;15969;51.536;11.884;2023-02-04T12:57:53;7.90;99.90
28835;DHT22;15969;51.536;11.884;2023-02-04T13:00:20;7.90;99.90
28835;DHT22;15969;51.536;11.884;2023-02-04T13:02:46;7.90;99.90
28835;DHT22;15969;51.536;11.884;2023-02-04T13:05:13;8.00;99.90
28835;DHT22;15969;51.536;11.884;2023-02-04T13:07:39;8.20;99.90
28835;DHT22;15969;51.536;11.884;2023-02-04T13:10:07;8.30;99.90
28835;DHT22;15969;51.536;11.884;2023-02-04T13:12:33;8.50;99.90
28835;DHT22;15969;51.536;11.884;2023-02-04T13:14:59;8.70;99.90
28835;DHT22;15969;51.536;11.884;2023-02-04T13:17:25;8.70;99.90
28835;DHT22;15969;51.536;11.884;2023-02-04T13:19:51;8.50;99.90
28835;DHT22;15969;51.536;11.884;2023-02-04T13:22:16;8.30;99.90
28835;DHT22;15969;51.536;11.884;2023-02-04T13:24:42;8.30;99.90
28835;DHT22;15969;51.536;11.884;2023-02-04T13:27:08;8.80;99.90
28835;DHT22;15969;51.536;11.884;2023-02-04T13:29:33;11.30;98.10
28835;DHT22;15969;51.536;11.884;2023-02-04T13:31:59;14.40;92.80
28835;DHT22;15969;51.536;11.884;2023-02-04T13:34:25;17.60;85.00
28835;DHT22;15969;51.536;11.884;2023-02-04T13:36:50;18.80;73.40
28835;DHT22;15969;51.536;11.884;2023-02-04T13:39:16;17.60;70.40
28835;DHT22;15969;51.536;11.884;2023-02-04T13:41:42;16.90;71.70
28835;DHT22;15969;51.536;11.884;2023-02-04T13:44:08;16.90;71.70
28835;DHT22;15969;51.536;11.884;2023-02-04T13:46:33;15.90;72.80
28835;DHT22;15969;51.536;11.884;2023-02-04T13:48:59;14.70;74.80
28835;DHT22;15969;51.536;11.884;2023-02-04T13:51:25;13.50;77.50
28835;DHT22;15969;51.536;11.884;2023-02-04T13:53:51;12.30;81.10
28835;DHT22;15969;51.536;11.884;2023-02-04T13:56:16;11.50;84.40
28835;DHT22;15969;51.536;11.884;2023-02-04T13:58:42;10.90;86.80
28835;DHT22;15969;51.536;11.884;2023-02-04T14:01:10;10.50;90.40
28835;DHT22;15969;51.536;11.884;2023-02-04T14:03:36;12.40;90.90
28835;DHT22;15969;51.536;11.884;2023-02-04T14:06:02;14.80;85.30
28835;DHT22;15969;51.536;11.884;2023-02-04T14:08:28;17.60;77.90
28835;DHT22;15969;51.536;11.884;2023-02-04T14:10:54;18.90;68.70
28835;DHT22;15969;51.536;11.884;2023-02-04T14:13:19;17.70;68.10
28835;DHT22;15969;51.536;11.884;2023-02-04T14:15:45;16.30;68.20
28835;DHT22;15969;51.536;11.884;2023-02-04T14:18:11;14.30;72.90
28835;DHT22;15969;51.536;11.884;2023-02-04T14:20:38;13.00;76.60
28835;DHT22;15969;51.536;11.884;2023-02-04T14:23:04;12.00;79.10
28835;DHT22;15969;51.536;11.884;2023-02-04T14:25:30;11.20;80.90
28835;DHT22;15969;51.536;11.884;2023-02-04T14:27:56;10.70;83.00
28835;DHT22;15969;51.536;11.884;2023-02-04T14:30:23;10.10;84.70
28835;DHT22;15969;51.536;11.884;2023-02-04T14:32:50;9.70;88.70
28835;DHT22;15969;51.536;11.884;2023-02-04T14:35:16;9.50;89.70
28835;DHT22;15969;51.536;11.884;2023-02-04T14:37:42;10.00;89.20
28835;DHT22;15969;51.536;11.884;2023-02-04T14:40:09;9.80;89.30
28835;DHT22;15969;51.536;11.884;2023-02-04T14:42:36;9.80;90.10
28835;DHT22;15969;51.536;11.884;2023-02-04T14:45:03;9.60;90.50
28835;DHT22;15969;51.536;11.884;2023-02-04T14:47:34;9.40;90.00
28835;DHT22;15969;51.536;11.884;2023-02-04T14:50:00;9.20;90.10
28835;DHT22;15969;51.536;11.884;2023-02-04T14:52:26;9.00;90.10
28835;DHT22;15969;51.536;11.884;2023-02-04T14:54:51;8.80;90.70
28835;DHT22;15969;51.536;11.884;2023-02-04T14:57:17;8.60;91.80
28835;DHT22;15969;51.536;11.884;2023-02-04T14:59:43;8.40;92.00
28835;DHT22;15969;51.536;11.884;2023-02-04T15:02:09;8.30;92.20
28835;DHT22;15969;51.536;11.884;2023-02-04T15:04:36;8.30;93.30
28835;DHT22;15969;51.536;11.884;2023-02-04T15:07:02;8.80;93.40
28835;DHT22;15969;51.536;11.884;2023-02-04T15:09:28;9.20;93.50
28835;DHT22;15969;51.536;11.884;2023-02-04T15:11:54;9.50;93.10
28835;DHT22;15969;51.536;11.884;2023-02-04T15:14:20;9.40;92.80
28835;DHT22;15969;51.536;11.884;2023-02-04T15:16:47;9.30;93.20
28835;DHT22;15969;51.536;11.884;2023-02-04T15:19:16;9.10;93.70
28835;DHT22;15969;51.536;11.884;2023-02-04T15:21:44;8.70;94.40
28835;DHT22;15969;51.536;11.884;2023-02-04T15:24:11;8.10;94.50
28835;DHT22;15969;51.536;11.884;2023-02-04T15:26:37;7.80;94.50
28835;DHT22;15969;51.536;11.884;2023-02-04T15:29:03;7.50;94.70
28835;DHT22;15969;51.536;11.884;2023-02-04T15:31:29;7.40;95.10
28835;DHT22;15969;51.536;11.884;2023-02-04T15:33:55;7.20;95.10
28835;DHT22;15969;51.536;11.884;2023-02-04T15:36:21;6.90;95.40
28835;DHT22;15969;51.536;11.884;2023-02-04T15:38:47;6.90;95.90
28835;DHT22;15969;51.536;11.884;2023-02-04T15:41:13;6.70;96.40